Greenbrier Valley Airport
KLWB : rendu visible

Aérodrome :











RETROUVEZ-NOUS SUR...

 
LOGIN :

S'inscrire | Disclaimer

   EN    FR    IT 

 









Légende :    VFR   VFR Marginal   IFR   IFR Intensif   IFR Très Intensif
Visi : 
Plafond : 
>= 8 km
>= 3000ft
5 à 8 km
1000 à 3000 ft
1500m à 5 km
500 à 1000 ft
800 à 1500m
200 à 500 ft
< 800m
< 200 ft
Symboles :   Orages  Brouillard  Fortes neiges  Fortes précipitations  Vent > 20 kt







- Altitude de l'aérodrome : 2302 ft


KLWB - Greenbrier Valley

DERNIER METAR :
  • 251215Z AUTO 03003KT 10SM SCT019 12/12 A3024 RMK AO2 T01170117

METARs EXPIRÉS :
  • 251155Z AUTO 00000KT 5SM BR SCT019 11/11 A3024 RMK AO2 T01050105 10122 20096
  • 251135Z AUTO 03003KT 3SM BR CLR 11/11 A3023 RMK AO2 T01050105
  • 251115Z AUTO 02006KT 1 1/4SM BR SCT001 SCT020 BKN044 10/10 A3023 RMK AO2 T01010101
  • 251055Z AUTO 03005KT 1/2SM FG BKN001 BKN020 OVC050 10/10 A3023 RMK AO2 T01010101
  • 251035Z AUTO 03003KT 2 1/2SM BR OVC050 10/10 A3022 RMK AO2 T01030103
  • 251015Z AUTO 00000KT 1 3/4SM BR SCT001 SCT022 OVC050 11/11 A3023 RMK AO2 T01050105
  • 250955Z AUTO 02003KT 1/2SM FG BKN001 OVC050 10/10 A3023 RMK AO2 T01020102
  • 250935Z AUTO 00000KT 1/4SM FG BKN001 OVC050 10/10 A3022 RMK AO2 T00970097

TAF KLWB
Valide du 25 à 12h jusqu'au 26 à 12h UTC


251121Z 2512/2612 03004KT 2SM BR BKN020
TEMPO 2512/2513 1/2SM FG OVC001
FM251330 03005KT P6SM SCT020
FM251900 11006KT P6SM BKN050
FM260700 10005KT 2SM BR BKN010
Pas de NOTAMs connus pour ce terrain.



MET'MAP, la Météo Aéronautique d'un coup d'oeil ! - Copyright ORBIFLY Décembre 2007 - Disclaimer

ORBIFLY MET'MAP TEAM :

Programmation & Développement : Alexandra Zaïnal
Conception & Développement : Baudouin d'Aumeries
Co-Programmation & Développement : Marc-Olivier Méhu
Soutien technique & logistique : Manuel Goepfert

Contact : metmap@orbifly.com




SOURCES & CREDITS :

   NOAA       Earth
Advisory